createdAt,value
2022-12-25T00:00:04.726Z,8.69
2022-12-25T00:02:34.449Z,8.72
2022-12-25T00:05:02.821Z,8.73
2022-12-25T00:07:31.136Z,8.75
2022-12-25T00:09:59.372Z,8.79
2022-12-25T00:12:27.562Z,8.82
2022-12-25T00:14:55.752Z,8.84
2022-12-25T00:17:23.928Z,8.84
2022-12-25T00:19:53.768Z,8.81
2022-12-25T00:22:21.916Z,8.79
2022-12-25T00:24:50.430Z,8.78
2022-12-25T00:27:18.881Z,8.77
2022-12-25T00:29:46.984Z,8.72
2022-12-25T00:32:15.163Z,8.68
2022-12-25T00:34:43.348Z,8.66
2022-12-25T00:37:13.972Z,8.65
2022-12-25T00:39:42.156Z,8.63
2022-12-25T00:42:20.383Z,8.62
2022-12-25T00:44:49.456Z,8.59
2022-12-25T00:47:19.781Z,8.60
2022-12-25T00:49:48.178Z,8.59
2022-12-25T00:52:17.708Z,8.58
2022-12-25T00:54:45.979Z,8.55
2022-12-25T00:57:14.287Z,8.55
2022-12-25T00:59:42.792Z,8.56
2022-12-25T01:02:26.390Z,8.57
2022-12-25T01:04:56.732Z,8.60
2022-12-25T01:07:27.676Z,8.59
2022-12-25T01:10:14.603Z,8.58
2022-12-25T01:12:44.599Z,8.59
2022-12-25T01:15:13.827Z,8.59
2022-12-25T01:17:42.856Z,8.64
2022-12-25T01:20:12.573Z,8.65
2022-12-25T01:22:42.727Z,8.66
2022-12-25T01:25:11.957Z,8.71
2022-12-25T01:27:40.571Z,8.75
2022-12-25T01:30:09.922Z,8.78
2022-12-25T01:32:38.531Z,8.81
2022-12-25T01:35:07.637Z,8.84
2022-12-25T01:37:35.818Z,8.84
2022-12-25T01:40:06.426Z,8.82
2022-12-25T01:42:34.676Z,8.84
2022-12-25T01:45:31.959Z,8.86
2022-12-25T01:48:00.459Z,8.84
2022-12-25T01:50:29.721Z,8.83
2022-12-25T01:52:58.851Z,8.78
2022-12-25T01:55:29.292Z,8.78
2022-12-25T01:57:58.143Z,8.79
2022-12-25T02:00:26.230Z,8.77
2022-12-25T02:02:54.760Z,8.77
2022-12-25T02:05:28.314Z,8.77
2022-12-25T02:07:57.976Z,8.77
2022-12-25T02:10:26.211Z,8.76
2022-12-25T02:12:55.959Z,8.75
2022-12-25T02:15:31.567Z,8.71
2022-12-25T02:18:08.727Z,8.67
2022-12-25T02:20:48.128Z,8.64
2022-12-25T02:23:45.347Z,8.59
2022-12-25T02:26:26.605Z,8.58
2022-12-25T02:29:02.859Z,8.58
2022-12-25T02:31:39.365Z,8.58
2022-12-25T02:34:15.177Z,8.57
2022-12-25T02:36:48.938Z,8.58
2022-12-25T02:39:41.907Z,8.58
2022-12-25T02:42:14.850Z,8.57
2022-12-25T02:45:11.669Z,8.57
2022-12-25T02:47:57.788Z,8.56
2022-12-25T02:50:44.778Z,8.53
2022-12-25T02:53:31.279Z,8.51
2022-12-25T02:56:18.143Z,8.48
2022-12-25T02:59:05.139Z,8.47
2022-12-25T03:01:56.418Z,8.42
2022-12-25T03:04:45.461Z,8.44
2022-12-25T03:07:17.869Z,8.49
2022-12-25T03:10:10.698Z,8.55
2022-12-25T03:12:48.046Z,8.57
2022-12-25T03:15:35.090Z,8.59
2022-12-25T03:18:07.551Z,8.56
2022-12-25T03:20:53.505Z,8.57
2022-12-25T03:23:43.204Z,8.59
2022-12-25T03:26:28.739Z,8.60
2022-12-25T03:28:56.961Z,8.58
2022-12-25T03:31:32.459Z,8.55
2022-12-25T03:34:28.554Z,8.54
2022-12-25T03:37:22.391Z,8.54
2022-12-25T03:40:19.365Z,8.52
2022-12-25T03:43:11.777Z,8.54
2022-12-25T03:46:04.124Z,8.54
2022-12-25T03:48:53.121Z,8.56
2022-12-25T03:51:48.323Z,8.52
2022-12-25T03:54:37.946Z,8.55
2022-12-25T03:57:24.254Z,8.54
2022-12-25T04:00:09.474Z,8.53
2022-12-25T04:02:55.916Z,8.53
2022-12-25T04:05:41.723Z,8.53
2022-12-25T04:08:29.093Z,8.52
2022-12-25T04:11:14.484Z,8.50
2022-12-25T04:13:59.657Z,8.52
2022-12-25T04:16:41.558Z,8.54
2022-12-25T04:19:27.528Z,8.55
2022-12-25T04:22:13.253Z,8.55
2022-12-25T04:25:00.519Z,8.55
2022-12-25T04:27:45.655Z,8.55
2022-12-25T04:30:33.767Z,8.54
2022-12-25T04:33:19.418Z,8.54
2022-12-25T04:36:06.068Z,8.55
2022-12-25T04:38:34.496Z,8.58
2022-12-25T04:41:04.971Z,8.58
2022-12-25T04:43:33.366Z,8.60
2022-12-25T04:46:03.087Z,8.59
2022-12-25T04:48:34.521Z,8.57
2022-12-25T04:51:11.107Z,8.54
2022-12-25T04:53:39.301Z,8.57
2022-12-25T04:56:09.081Z,8.57
2022-12-25T04:58:37.321Z,8.56
2022-12-25T05:01:06.479Z,8.56
2022-12-25T05:03:35.531Z,8.58
2022-12-25T05:06:05.185Z,8.61
2022-12-25T05:08:36.038Z,8.62
2022-12-25T05:11:10.065Z,8.67
2022-12-25T05:13:39.048Z,8.70
2022-12-25T05:16:08.916Z,8.71
2022-12-25T05:18:37.233Z,8.74
2022-12-25T05:21:06.116Z,8.77
2022-12-25T05:23:34.292Z,8.76
2022-12-25T05:26:05.475Z,8.77
2022-12-25T05:28:35.479Z,8.81
2022-12-25T05:31:04.066Z,8.84
2022-12-25T05:33:32.367Z,8.84
2022-12-25T05:36:04.246Z,8.84
2022-12-25T05:38:32.600Z,8.84
2022-12-25T05:41:01.217Z,8.87
2022-12-25T05:43:30.528Z,8.86
2022-12-25T05:46:00.104Z,8.86
2022-12-25T05:48:28.302Z,8.89
2022-12-25T05:50:56.424Z,8.89
2022-12-25T05:53:24.676Z,8.86
2022-12-25T05:55:53.662Z,8.85
2022-12-25T05:58:21.809Z,8.85
2022-12-25T06:00:50.123Z,8.85
2022-12-25T06:03:19.755Z,8.87
2022-12-25T06:05:48.068Z,8.84
2022-12-25T06:08:16.353Z,8.84
2022-12-25T06:10:44.539Z,8.82
2022-12-25T06:13:12.639Z,8.81
2022-12-25T06:15:41.220Z,8.80
2022-12-25T06:18:09.761Z,8.81
2022-12-25T06:20:42.071Z,8.80
2022-12-25T06:23:10.374Z,8.79
2022-12-25T06:25:40.395Z,8.77
2022-12-25T06:28:08.840Z,8.73
2022-12-25T06:30:37.066Z,8.71
2022-12-25T06:33:05.338Z,8.69
2022-12-25T06:35:33.652Z,8.70
2022-12-25T06:38:03.183Z,8.67
2022-12-25T06:40:31.387Z,8.65
2022-12-25T06:42:59.445Z,8.64
2022-12-25T06:45:27.655Z,8.63
2022-12-25T06:47:56.662Z,8.63
2022-12-25T06:50:24.852Z,8.62
2022-12-25T06:52:53.002Z,8.62
2022-12-25T06:55:22.473Z,8.61
2022-12-25T06:57:50.633Z,8.60
2022-12-25T07:00:19.164Z,8.61
2022-12-25T07:02:49.892Z,8.59
2022-12-25T07:05:18.329Z,8.62
2022-12-25T07:07:46.522Z,8.62
2022-12-25T07:10:14.623Z,8.62
2022-12-25T07:12:44.178Z,8.61
2022-12-25T07:15:12.499Z,8.62
2022-12-25T07:17:40.799Z,8.59
2022-12-25T07:20:10.067Z,8.59
2022-12-25T07:22:38.194Z,8.58
2022-12-25T07:25:07.334Z,8.57
2022-12-25T07:27:35.563Z,8.56
2022-12-25T07:30:05.613Z,8.59
2022-12-25T07:32:34.033Z,8.62
2022-12-25T07:35:02.236Z,8.61
2022-12-25T07:37:30.471Z,8.58
2022-12-25T07:39:58.626Z,8.60
2022-12-25T07:42:26.724Z,8.60
2022-12-25T07:44:54.761Z,8.62
2022-12-25T07:47:24.331Z,8.62
2022-12-25T07:49:52.617Z,8.60
2022-12-25T07:52:20.887Z,8.58
2022-12-25T07:54:49.171Z,8.63
2022-12-25T07:57:17.725Z,8.63
2022-12-25T07:59:45.925Z,8.63
2022-12-25T08:02:14.432Z,8.64
2022-12-25T08:04:44.734Z,8.64
2022-12-25T08:07:12.858Z,8.67
2022-12-25T08:09:41.031Z,8.68
2022-12-25T08:12:09.115Z,8.70
2022-12-25T08:14:37.319Z,8.73
2022-12-25T08:17:05.625Z,8.77
2022-12-25T08:19:34.065Z,8.79
2022-12-25T08:22:03.640Z,8.81
2022-12-25T08:24:31.930Z,8.85
2022-12-25T08:27:00.177Z,8.86
2022-12-25T08:29:29.055Z,8.87
2022-12-25T08:31:57.304Z,8.88
2022-12-25T08:34:25.420Z,8.87
2022-12-25T08:36:53.629Z,8.90
2022-12-25T08:39:23.316Z,8.92
2022-12-25T08:41:51.445Z,8.94
2022-12-25T08:44:19.788Z,8.96
2022-12-25T08:46:47.877Z,8.95
2022-12-25T08:49:16.519Z,8.97
2022-12-25T08:51:45.885Z,9.02
2022-12-25T08:54:14.125Z,9.04
2022-12-25T08:56:43.777Z,9.07
2022-12-25T08:59:11.998Z,9.09
2022-12-25T09:01:40.277Z,9.10
2022-12-25T09:04:08.440Z,9.15
2022-12-25T09:06:36.644Z,9.24
2022-12-25T09:09:05.006Z,9.33
2022-12-25T09:11:33.166Z,9.44
2022-12-25T09:14:03.014Z,9.55
2022-12-25T09:16:31.213Z,9.62
2022-12-25T09:18:59.419Z,9.69
2022-12-25T09:21:27.558Z,9.72
2022-12-25T09:23:55.810Z,9.72
2022-12-25T09:26:24.321Z,9.67
2022-12-25T09:28:52.960Z,9.68
2022-12-25T09:31:23.977Z,9.67
2022-12-25T09:33:53.054Z,9.62
2022-12-25T09:36:23.518Z,9.60
2022-12-25T09:38:51.974Z,9.56
2022-12-25T09:41:26.116Z,9.55
2022-12-25T09:44:00.932Z,9.53
2022-12-25T09:46:38.171Z,9.54
2022-12-25T09:49:14.763Z,9.52
2022-12-25T09:51:47.089Z,9.51
2022-12-25T09:54:22.191Z,9.51
2022-12-25T09:56:50.592Z,9.50
2022-12-25T09:59:24.323Z,9.52
2022-12-25T10:02:15.976Z,9.49
2022-12-25T10:04:58.866Z,9.47
2022-12-25T10:07:38.035Z,9.48
2022-12-25T10:10:25.390Z,9.50
2022-12-25T10:13:05.452Z,9.46
2022-12-25T10:15:41.824Z,9.44
2022-12-25T10:18:38.209Z,9.42
2022-12-25T10:21:13.231Z,9.42
2022-12-25T10:23:44.465Z,9.42
2022-12-25T10:26:16.938Z,9.42
2022-12-25T10:28:47.048Z,9.44
2022-12-25T10:31:22.296Z,9.44
2022-12-25T10:33:55.123Z,9.45
2022-12-25T10:36:26.230Z,9.45
2022-12-25T10:38:55.264Z,9.44
2022-12-25T10:41:38.834Z,9.41
2022-12-25T10:44:15.402Z,9.43
2022-12-25T10:46:49.426Z,9.48
2022-12-25T10:49:22.376Z,9.52
2022-12-25T10:51:51.250Z,9.57
2022-12-25T10:54:23.105Z,9.62
2022-12-25T10:56:56.366Z,9.62
2022-12-25T10:59:25.340Z,9.59
2022-12-25T11:01:55.389Z,9.58
2022-12-25T11:04:28.633Z,9.57
2022-12-25T11:06:59.052Z,9.56
2022-12-25T11:09:27.343Z,9.62
2022-12-25T11:11:55.730Z,9.67
2022-12-25T11:14:34.903Z,9.72
2022-12-25T11:17:10.108Z,9.82
2022-12-25T11:19:39.584Z,9.88
2022-12-25T11:22:19.814Z,9.97
2022-12-25T11:24:47.994Z,10.02
2022-12-25T11:27:26.310Z,10.07
2022-12-25T11:29:59.364Z,10.11
2022-12-25T11:32:31.682Z,10.15
2022-12-25T11:35:02.984Z,10.17
2022-12-25T11:37:36.604Z,10.20
2022-12-25T11:40:05.927Z,10.20
2022-12-25T11:42:37.950Z,10.19
2022-12-25T11:45:12.668Z,10.14
2022-12-25T11:47:46.297Z,10.16
2022-12-25T11:50:23.686Z,10.17
2022-12-25T11:52:54.362Z,10.14
2022-12-25T11:55:30.684Z,10.13
2022-12-25T11:58:04.591Z,10.13
2022-12-25T12:00:36.538Z,10.17
2022-12-25T12:03:12.108Z,10.19
2022-12-25T12:05:46.558Z,10.23
2022-12-25T12:08:15.705Z,10.27
2022-12-25T12:11:16.108Z,10.32
2022-12-25T12:14:05.412Z,10.33
2022-12-25T12:16:33.969Z,10.39
2022-12-25T12:19:12.837Z,10.41
2022-12-25T12:21:44.292Z,10.45
2022-12-25T12:24:17.782Z,10.46
2022-12-25T12:26:47.693Z,10.48
2022-12-25T12:29:26.550Z,10.51
2022-12-25T12:31:58.635Z,10.54
2022-12-25T12:34:29.523Z,10.59
2022-12-25T12:37:02.973Z,10.60
2022-12-25T12:39:36.595Z,10.61
2022-12-25T12:42:15.145Z,10.56
2022-12-25T12:44:44.087Z,10.58
2022-12-25T12:47:29.072Z,10.57
2022-12-25T12:50:00.154Z,10.60
2022-12-25T12:52:37.755Z,10.61
2022-12-25T12:55:09.558Z,10.63
2022-12-25T12:57:40.494Z,10.66
2022-12-25T13:00:16.237Z,10.67
2022-12-25T13:03:10.345Z,10.64
2022-12-25T13:05:42.065Z,10.61
2022-12-25T13:08:34.908Z,10.53
2022-12-25T13:11:16.852Z,10.45
2022-12-25T13:13:46.849Z,10.43
2022-12-25T13:16:23.169Z,10.38
2022-12-25T13:18:53.123Z,10.34
2022-12-25T13:21:27.945Z,10.30
2022-12-25T13:24:02.682Z,10.30
2022-12-25T13:26:32.133Z,10.31
2022-12-25T13:29:00.396Z,10.35
2022-12-25T13:31:30.744Z,10.35
2022-12-25T13:34:03.730Z,10.39
2022-12-25T13:36:37.488Z,10.40
2022-12-25T13:39:10.281Z,10.45
2022-12-25T13:42:02.999Z,10.51
2022-12-25T13:44:37.388Z,10.59
2022-12-25T13:47:16.827Z,10.64
2022-12-25T13:49:46.174Z,10.65
2022-12-25T13:52:16.909Z,10.65
2022-12-25T13:54:57.567Z,10.67
2022-12-25T13:57:30.220Z,10.69
2022-12-25T13:59:59.050Z,10.67
2022-12-25T14:02:32.658Z,10.64
2022-12-25T14:05:00.839Z,10.61
2022-12-25T14:07:29.178Z,10.58
2022-12-25T14:10:02.859Z,10.52
2022-12-25T14:12:32.975Z,10.50
2022-12-25T14:15:02.358Z,10.47
2022-12-25T14:17:30.751Z,10.43
2022-12-25T14:20:06.000Z,10.42
2022-12-25T14:22:37.934Z,10.40
2022-12-25T14:25:15.687Z,10.36
2022-12-25T14:27:50.176Z,10.37
2022-12-25T14:30:19.568Z,10.38
2022-12-25T14:32:52.081Z,10.36
2022-12-25T14:35:23.749Z,10.33
2022-12-25T14:37:57.208Z,10.31
2022-12-25T14:40:31.932Z,10.30
2022-12-25T14:43:01.465Z,10.29
2022-12-25T14:45:32.279Z,10.27
2022-12-25T14:48:03.214Z,10.27
2022-12-25T14:50:37.445Z,10.23
2022-12-25T14:53:07.462Z,10.23
2022-12-25T14:55:38.458Z,10.25
2022-12-25T14:58:08.309Z,10.23
2022-12-25T15:00:39.118Z,10.24
2022-12-25T15:03:18.716Z,10.23
2022-12-25T15:05:46.846Z,10.22
2022-12-25T15:08:26.112Z,10.16
2022-12-25T15:11:00.673Z,10.14
2022-12-25T15:13:30.785Z,10.10
2022-12-25T15:16:03.199Z,10.07
2022-12-25T15:18:36.358Z,10.07
2022-12-25T15:21:04.706Z,10.04
2022-12-25T15:23:32.875Z,10.03
2022-12-25T15:26:02.361Z,9.99
2022-12-25T15:28:30.486Z,9.97
2022-12-25T15:30:58.827Z,9.94
2022-12-25T15:33:27.090Z,9.90
2022-12-25T15:35:55.264Z,9.88
2022-12-25T15:38:23.430Z,9.86
2022-12-25T15:40:51.582Z,9.85
2022-12-25T15:43:40.111Z,9.80
2022-12-25T15:46:10.595Z,9.76
2022-12-25T15:48:38.798Z,9.76
2022-12-25T15:51:07.230Z,9.74
2022-12-25T15:53:35.759Z,9.70
2022-12-25T15:56:04.053Z,9.68
2022-12-25T15:58:33.607Z,9.64
2022-12-25T16:01:01.921Z,9.61
2022-12-25T16:03:30.165Z,9.58
2022-12-25T16:05:58.407Z,9.57
2022-12-25T16:08:26.521Z,9.55
2022-12-25T16:10:54.963Z,9.54
2022-12-25T16:13:23.493Z,9.54
2022-12-25T16:15:53.137Z,9.55
2022-12-25T16:18:21.449Z,9.55
2022-12-25T16:20:49.602Z,9.54
2022-12-25T16:23:17.897Z,9.56
2022-12-25T16:25:46.076Z,9.57
2022-12-25T16:28:14.326Z,9.58
2022-12-25T16:30:43.318Z,9.57
2022-12-25T16:33:13.080Z,9.55
2022-12-25T16:35:41.320Z,9.56
2022-12-25T16:38:09.538Z,9.54
2022-12-25T16:40:37.665Z,9.53
2022-12-25T16:43:05.946Z,9.53
2022-12-25T16:45:39.612Z,9.52
2022-12-25T16:48:08.748Z,9.51
2022-12-25T16:50:41.281Z,9.47
2022-12-25T16:53:09.934Z,9.46
2022-12-25T16:55:38.875Z,9.44
2022-12-25T16:58:07.805Z,9.43
2022-12-25T17:00:36.096Z,9.46
2022-12-25T17:03:04.432Z,9.44
2022-12-25T17:05:34.577Z,9.44
2022-12-25T17:08:04.067Z,9.45
2022-12-25T17:10:32.630Z,9.48
2022-12-25T17:13:00.869Z,9.48
2022-12-25T17:15:31.595Z,9.47
2022-12-25T17:17:59.776Z,9.47
2022-12-25T17:20:28.125Z,9.48
2022-12-25T17:22:57.757Z,9.50
2022-12-25T17:25:27.275Z,9.51
2022-12-25T17:27:55.356Z,9.54
2022-12-25T17:30:23.865Z,9.60
2022-12-25T17:32:52.046Z,9.64
2022-12-25T17:35:21.468Z,9.66
2022-12-25T17:37:49.739Z,9.68
2022-12-25T17:40:17.974Z,9.70
2022-12-25T17:42:47.653Z,9.72
2022-12-25T17:45:16.017Z,9.73
2022-12-25T17:47:44.201Z,9.76
2022-12-25T17:50:12.423Z,9.76
2022-12-25T17:52:40.606Z,9.75
2022-12-25T17:55:09.609Z,9.73
2022-12-25T17:57:37.779Z,9.71
2022-12-25T18:00:10.320Z,9.70
2022-12-25T18:02:40.151Z,9.69
2022-12-25T18:05:10.004Z,9.69
2022-12-25T18:07:38.510Z,9.68
2022-12-25T18:10:07.966Z,9.70
2022-12-25T18:12:36.222Z,9.73
2022-12-25T18:15:04.638Z,9.75
2022-12-25T18:17:34.151Z,9.76
2022-12-25T18:20:02.708Z,9.77
2022-12-25T18:22:30.995Z,9.79
2022-12-25T18:24:59.317Z,9.82
2022-12-25T18:27:27.495Z,9.85
2022-12-25T18:29:55.684Z,9.85
2022-12-25T18:32:28.038Z,9.86
2022-12-25T18:34:58.071Z,9.87
2022-12-25T18:37:26.757Z,9.86
2022-12-25T18:39:54.950Z,9.81
2022-12-25T18:42:41.434Z,9.75
2022-12-25T18:45:12.413Z,9.65
2022-12-25T18:47:40.520Z,9.59
2022-12-25T18:50:11.220Z,9.53
2022-12-25T18:52:49.404Z,9.45
2022-12-25T18:55:19.893Z,9.39
2022-12-25T18:57:48.527Z,9.30
2022-12-25T19:00:17.231Z,9.18
2022-12-25T19:02:45.700Z,9.00
2022-12-25T19:05:15.513Z,8.79
2022-12-25T19:07:43.789Z,8.57
2022-12-25T19:10:11.881Z,8.41
2022-12-25T19:12:40.018Z,8.32
2022-12-25T19:15:09.193Z,8.23
2022-12-25T19:17:38.551Z,8.14
2022-12-25T19:20:07.617Z,8.11
2022-12-25T19:22:37.310Z,8.04
2022-12-25T19:25:06.333Z,7.97
2022-12-25T19:27:34.669Z,7.89
2022-12-25T19:30:02.764Z,7.81
2022-12-25T19:32:32.611Z,7.75
2022-12-25T19:35:04.566Z,7.60
2022-12-25T19:37:32.933Z,7.41
2022-12-25T19:40:02.488Z,7.30
2022-12-25T19:42:30.771Z,7.25
2022-12-25T19:44:58.993Z,7.21
2022-12-25T19:47:27.256Z,7.21
2022-12-25T19:50:00.851Z,7.23
2022-12-25T19:52:30.782Z,7.20
2022-12-25T19:54:59.095Z,7.13
2022-12-25T19:57:28.701Z,7.11
2022-12-25T19:59:56.957Z,7.00
2022-12-25T20:02:25.117Z,6.93
2022-12-25T20:04:53.485Z,6.80
2022-12-25T20:07:21.733Z,6.66
2022-12-25T20:09:49.959Z,6.55
2022-12-25T20:12:18.124Z,6.45
2022-12-25T20:14:48.397Z,6.38
2022-12-25T20:17:16.770Z,6.40
2022-12-25T20:19:45.106Z,6.39
2022-12-25T20:22:13.271Z,6.40
2022-12-25T20:24:41.360Z,6.47
2022-12-25T20:27:09.580Z,6.50
2022-12-25T20:29:37.992Z,6.55
2022-12-25T20:32:07.744Z,6.56
2022-12-25T20:34:36.000Z,6.57
2022-12-25T20:37:04.895Z,6.63
2022-12-25T20:39:33.181Z,6.64
2022-12-25T20:42:01.376Z,6.65
2022-12-25T20:44:29.490Z,6.69
2022-12-25T20:47:01.235Z,6.70
2022-12-25T20:49:32.722Z,6.71
2022-12-25T20:52:05.266Z,6.74
2022-12-25T20:54:34.596Z,6.79
2022-12-25T20:57:02.774Z,6.83
2022-12-25T20:59:37.165Z,6.79
2022-12-25T21:02:06.396Z,6.84
2022-12-25T21:04:36.086Z,6.86
2022-12-25T21:07:05.290Z,6.85
2022-12-25T21:09:34.523Z,6.90
2022-12-25T21:12:03.015Z,6.90
2022-12-25T21:14:31.293Z,6.94
2022-12-25T21:16:59.701Z,6.97
2022-12-25T21:19:27.794Z,6.97
2022-12-25T21:21:57.410Z,6.97
2022-12-25T21:24:25.638Z,6.99
2022-12-25T21:26:53.803Z,6.97
2022-12-25T21:29:23.170Z,6.92
2022-12-25T21:32:08.345Z,6.96
2022-12-25T21:34:36.810Z,6.91
2022-12-25T21:37:06.364Z,6.88
2022-12-25T21:39:35.085Z,6.92
2022-12-25T21:42:04.782Z,6.86
2022-12-25T21:44:32.967Z,6.83
2022-12-25T21:47:01.180Z,6.86
2022-12-25T21:49:48.790Z,6.88
2022-12-25T21:52:18.601Z,6.87
2022-12-25T21:54:47.026Z,6.84
2022-12-25T21:57:15.250Z,6.79
2022-12-25T21:59:43.397Z,6.79
2022-12-25T22:02:12.370Z,6.73
2022-12-25T22:04:40.890Z,6.73
2022-12-25T22:07:18.579Z,6.77
2022-12-25T22:09:50.324Z,6.74
2022-12-25T22:12:49.340Z,6.75
2022-12-25T22:15:17.664Z,6.69
2022-12-25T22:18:03.016Z,6.65
2022-12-25T22:20:34.896Z,6.61
2022-12-25T22:23:03.596Z,6.54
2022-12-25T22:25:33.312Z,6.51
2022-12-25T22:28:01.460Z,6.49
2022-12-25T22:30:30.898Z,6.43
2022-12-25T22:32:59.412Z,6.43
2022-12-25T22:35:27.614Z,6.43
2022-12-25T22:37:56.122Z,6.44
2022-12-25T22:40:24.528Z,6.45
2022-12-25T22:42:56.838Z,6.42
2022-12-25T22:45:25.646Z,6.39
2022-12-25T22:47:53.815Z,6.37
2022-12-25T22:50:22.163Z,6.33
2022-12-25T22:52:50.327Z,6.31
2022-12-25T22:55:22.739Z,6.28
2022-12-25T22:57:52.179Z,6.23
2022-12-25T23:00:21.781Z,6.17
2022-12-25T23:02:50.300Z,6.15
2022-12-25T23:05:19.171Z,6.14
2022-12-25T23:07:47.252Z,6.08
2022-12-25T23:10:15.361Z,6.06
2022-12-25T23:13:01.098Z,6.05
2022-12-25T23:15:31.679Z,5.98
2022-12-25T23:18:17.448Z,5.96
2022-12-25T23:21:03.381Z,5.95
2022-12-25T23:23:49.000Z,5.94
2022-12-25T23:26:19.082Z,5.86
2022-12-25T23:29:04.833Z,5.82
2022-12-25T23:31:36.678Z,5.80
2022-12-25T23:34:05.942Z,5.74
2022-12-25T23:36:34.575Z,5.72
2022-12-25T23:39:09.731Z,5.72
2022-12-25T23:41:39.207Z,5.71
2022-12-25T23:44:07.705Z,5.68
2022-12-25T23:46:37.650Z,5.65
2022-12-25T23:49:06.581Z,5.59
2022-12-25T23:51:36.621Z,5.60
2022-12-25T23:54:05.193Z,5.55
2022-12-25T23:56:33.456Z,5.54
2022-12-25T23:59:01.709Z,5.52
